createdAt,value
2024-01-11T00:01:11.413Z,-6.90
2024-01-11T00:03:39.658Z,-6.90
2024-01-11T00:06:08.105Z,-6.90
2024-01-11T00:08:36.302Z,-6.80
2024-01-11T00:11:04.777Z,-6.90
2024-01-11T00:13:35.313Z,-6.90
2024-01-11T00:16:03.644Z,-6.90
2024-01-11T00:18:31.802Z,-6.90
2024-01-11T00:20:59.963Z,-6.90
2024-01-11T00:23:28.066Z,-6.90
2024-01-11T00:25:56.199Z,-6.90
2024-01-11T00:28:24.300Z,-6.80
2024-01-11T00:30:53.793Z,-6.80
2024-01-11T00:33:22.001Z,-6.80
2024-01-11T00:35:50.176Z,-6.80
2024-01-11T00:38:18.730Z,-6.80
2024-01-11T00:40:46.857Z,-6.80
2024-01-11T00:43:15.085Z,-6.80
2024-01-11T00:45:43.344Z,-6.70
2024-01-11T00:48:12.976Z,-6.70
2024-01-11T00:50:41.643Z,-6.70
2024-01-11T00:53:10.562Z,-6.70
2024-01-11T00:55:38.693Z,-6.70
2024-01-11T00:58:08.690Z,-6.70
2024-01-11T01:00:37.221Z,-6.70
2024-01-11T01:03:05.995Z,-6.70
2024-01-11T01:05:35.542Z,-6.80
2024-01-11T01:08:03.725Z,-6.70
2024-01-11T01:10:32.038Z,-6.70
2024-01-11T01:13:01.427Z,-6.70
2024-01-11T01:15:29.577Z,-6.70
2024-01-11T01:17:57.834Z,-6.70
2024-01-11T01:20:26.017Z,-6.70
2024-01-11T01:22:55.861Z,-6.70
2024-01-11T01:25:24.021Z,-6.70
2024-01-11T01:27:52.334Z,-6.60
2024-01-11T01:30:20.493Z,-6.70
2024-01-11T01:32:48.828Z,-6.70
2024-01-11T01:35:17.284Z,-6.60
2024-01-11T01:37:45.639Z,-6.60
2024-01-11T01:40:15.423Z,-6.60
2024-01-11T01:42:45.064Z,-6.60
2024-01-11T01:45:13.421Z,-6.60
2024-01-11T01:47:43.245Z,-6.60
2024-01-11T01:50:13.681Z,-6.60
2024-01-11T01:52:44.712Z,-6.50
2024-01-11T01:55:14.900Z,-6.50
2024-01-11T01:57:44.701Z,-6.50
2024-01-11T02:00:14.702Z,-6.50
2024-01-11T02:02:46.899Z,-6.50
2024-01-11T02:05:16.452Z,-6.50
2024-01-11T02:07:45.352Z,-6.50
2024-01-11T02:10:15.268Z,-6.50
2024-01-11T02:12:44.053Z,-6.50
2024-01-11T02:15:12.464Z,-6.50
2024-01-11T02:17:42.013Z,-6.40
2024-01-11T02:20:12.517Z,-6.40
2024-01-11T02:22:43.424Z,-6.40
2024-01-11T02:25:12.916Z,-6.40
2024-01-11T02:27:48.365Z,-6.40
2024-01-11T02:30:16.854Z,-6.40
2024-01-11T02:32:47.355Z,-6.30
2024-01-11T02:35:16.858Z,-6.40
2024-01-11T02:37:46.024Z,-6.30
2024-01-11T02:40:17.024Z,-6.30
2024-01-11T02:42:45.069Z,-6.30
2024-01-11T02:45:13.940Z,-6.30
2024-01-11T02:47:42.611Z,-6.30
2024-01-11T02:50:13.085Z,-6.30
2024-01-11T02:52:41.355Z,-6.30
2024-01-11T02:55:10.101Z,-6.30
2024-01-11T02:57:39.590Z,-6.30
2024-01-11T03:00:08.915Z,-6.30
2024-01-11T03:02:37.200Z,-6.30
2024-01-11T03:05:05.876Z,-6.30
2024-01-11T03:07:34.182Z,-6.30
2024-01-11T03:10:02.595Z,-6.30
2024-01-11T03:12:30.676Z,-6.30
2024-01-11T03:15:00.267Z,-6.30
2024-01-11T03:17:28.489Z,-6.30
2024-01-11T03:19:56.646Z,-6.30
2024-01-11T03:22:24.772Z,-6.30
2024-01-11T03:24:53.832Z,-6.30
2024-01-11T03:27:21.962Z,-6.20
2024-01-11T03:29:51.100Z,-6.20
2024-01-11T03:32:20.565Z,-6.20
2024-01-11T03:34:48.709Z,-6.20
2024-01-11T03:37:17.807Z,-6.20
2024-01-11T03:39:45.884Z,-6.10
2024-01-11T03:42:13.967Z,-6.10
2024-01-11T03:44:42.275Z,-6.10
2024-01-11T03:47:10.515Z,-6.10
2024-01-11T03:49:39.991Z,-6.10
2024-01-11T03:52:09.234Z,-6.10
2024-01-11T03:54:37.345Z,-6.00
2024-01-11T03:57:05.849Z,-6.00
2024-01-11T03:59:34.053Z,-6.00
2024-01-11T04:02:14.192Z,-6.00
2024-01-11T04:04:46.521Z,-6.00
2024-01-11T04:07:14.972Z,-5.90
2024-01-11T04:09:43.235Z,-5.90
2024-01-11T04:12:11.525Z,-5.90
2024-01-11T04:14:41.284Z,-5.90
2024-01-11T04:17:09.458Z,-5.90
2024-01-11T04:19:37.569Z,-6.00
2024-01-11T04:22:07.091Z,-5.90
2024-01-11T04:24:35.157Z,-5.90
2024-01-11T04:27:03.222Z,-5.90
2024-01-11T04:29:31.328Z,-5.90
2024-01-11T04:31:59.928Z,-5.90
2024-01-11T04:34:28.218Z,-5.90
2024-01-11T04:36:56.353Z,-5.90
2024-01-11T04:39:25.782Z,-5.90
2024-01-11T04:41:53.856Z,-5.80
2024-01-11T04:44:21.966Z,-5.90
2024-01-11T04:46:50.149Z,-5.80
2024-01-11T04:49:18.292Z,-5.80
2024-01-11T04:51:46.398Z,-5.80
2024-01-11T04:54:14.664Z,-5.80
2024-01-11T04:56:44.203Z,-5.80
2024-01-11T04:59:12.410Z,-5.80
2024-01-11T05:01:40.827Z,-5.90
2024-01-11T05:04:09.776Z,-5.90
2024-01-11T05:06:38.209Z,-5.90
2024-01-11T05:09:11.994Z,-5.90
2024-01-11T05:11:52.660Z,-5.90
2024-01-11T05:14:32.626Z,-5.90
2024-01-11T05:17:01.887Z,-5.90
2024-01-11T05:19:36.374Z,-5.90
2024-01-11T05:22:06.335Z,-5.90
2024-01-11T05:24:46.858Z,-5.90
2024-01-11T05:27:16.560Z,-5.90
2024-01-11T05:29:44.722Z,-5.90
2024-01-11T05:32:21.306Z,-5.90
2024-01-11T05:34:49.537Z,-6.00
2024-01-11T05:37:17.644Z,-6.00
2024-01-11T05:39:45.765Z,-6.00
2024-01-11T05:42:14.401Z,-6.00
2024-01-11T05:44:43.954Z,-6.00
2024-01-11T05:47:12.215Z,-6.00
2024-01-11T05:49:40.287Z,-6.00
2024-01-11T05:52:08.354Z,-6.00
2024-01-11T05:54:36.579Z,-6.00
2024-01-11T05:57:05.343Z,-6.00
2024-01-11T05:59:34.257Z,-6.00
2024-01-11T06:02:03.773Z,-6.10
2024-01-11T06:04:34.013Z,-6.10
2024-01-11T06:07:02.106Z,-6.10
2024-01-11T06:09:30.168Z,-6.10
2024-01-11T06:11:58.270Z,-6.10
2024-01-11T06:14:26.392Z,-6.10
2024-01-11T06:16:55.039Z,-6.10
2024-01-11T06:19:25.410Z,-6.10
2024-01-11T06:21:53.534Z,-6.10
2024-01-11T06:24:21.666Z,-6.10
2024-01-11T06:26:49.961Z,-6.10
2024-01-11T06:29:18.185Z,-6.10
2024-01-11T06:31:46.296Z,-6.10
2024-01-11T06:34:14.512Z,-6.10
2024-01-11T06:36:43.995Z,-6.10
2024-01-11T06:39:16.172Z,-6.10
2024-01-11T06:41:44.489Z,-6.10
2024-01-11T06:44:12.876Z,-6.10
2024-01-11T06:46:42.532Z,-6.10
2024-01-11T06:49:10.873Z,-6.10
2024-01-11T06:51:40.195Z,-6.10
2024-01-11T06:54:10.056Z,-6.10
2024-01-11T06:56:38.276Z,-6.10
2024-01-11T06:59:06.479Z,-6.10
2024-01-11T07:01:34.686Z,-6.00
2024-01-11T07:04:02.928Z,-6.00
2024-01-11T07:06:31.101Z,-6.00
2024-01-11T07:08:59.245Z,-5.90
2024-01-11T07:11:28.800Z,-5.90
2024-01-11T07:13:57.058Z,-5.90
2024-01-11T07:16:26.269Z,-5.90
2024-01-11T07:18:54.642Z,-5.90
2024-01-11T07:21:30.573Z,-5.90
2024-01-11T07:23:59.024Z,-5.80
2024-01-11T07:26:29.023Z,-5.80
2024-01-11T07:28:57.240Z,-5.80
2024-01-11T07:31:25.416Z,-5.70
2024-01-11T07:33:53.622Z,-5.70
2024-01-11T07:36:21.950Z,-5.70
2024-01-11T07:38:50.338Z,-5.70
2024-01-11T07:41:18.608Z,-5.60
2024-01-11T07:43:53.714Z,-5.50
2024-01-11T07:46:32.739Z,-5.40
2024-01-11T07:49:07.129Z,-5.30
2024-01-11T07:51:36.809Z,-5.20
2024-01-11T07:54:06.090Z,-4.90
2024-01-11T07:56:34.568Z,-4.60
2024-01-11T07:59:04.232Z,-4.40
2024-01-11T08:01:32.363Z,-4.20
2024-01-11T08:04:03.831Z,-3.70
2024-01-11T08:06:33.282Z,-3.70
2024-01-11T08:09:01.512Z,-3.70
2024-01-11T08:11:31.109Z,-3.40
2024-01-11T08:13:59.945Z,-3.20
2024-01-11T08:16:29.480Z,-3.30
2024-01-11T08:18:57.638Z,-3.50
2024-01-11T08:21:26.038Z,-3.50
2024-01-11T08:23:54.210Z,-3.60
2024-01-11T08:26:23.138Z,-3.70
2024-01-11T08:28:51.625Z,-3.70
2024-01-11T08:31:19.727Z,-3.80
2024-01-11T08:33:49.689Z,-3.70
2024-01-11T08:36:17.988Z,-3.60
2024-01-11T08:38:46.334Z,-3.50
2024-01-11T08:41:14.579Z,-3.50
2024-01-11T08:43:42.686Z,-3.50
2024-01-11T08:46:10.805Z,-3.40
2024-01-11T08:48:39.088Z,-3.30
2024-01-11T08:51:11.159Z,-3.30
2024-01-11T08:53:39.586Z,-3.20
2024-01-11T08:56:07.957Z,-3.20
2024-01-11T08:58:37.361Z,-3.10
2024-01-11T09:01:05.733Z,-3.00
2024-01-11T09:03:34.063Z,-2.90
2024-01-11T09:06:02.464Z,-2.90
2024-01-11T09:08:32.142Z,-2.90
2024-01-11T09:11:00.582Z,-2.90
2024-01-11T09:13:28.799Z,-2.90
2024-01-11T09:15:57.413Z,-2.80
2024-01-11T09:18:25.680Z,-2.80
2024-01-11T09:20:54.163Z,-2.70
2024-01-11T09:23:22.365Z,-2.70
2024-01-11T09:25:51.879Z,-2.70
2024-01-11T09:28:19.973Z,-2.70
2024-01-11T09:30:48.132Z,-2.60
2024-01-11T09:33:16.373Z,-2.60
2024-01-11T09:35:44.644Z,-2.60
2024-01-11T09:38:13.392Z,-2.50
2024-01-11T09:40:42.312Z,-2.40
2024-01-11T09:43:12.766Z,-2.20
2024-01-11T09:45:41.999Z,-2.10
2024-01-11T09:48:12.257Z,-2.10
2024-01-11T09:50:42.057Z,-2.20
2024-01-11T09:53:11.131Z,-2.10
2024-01-11T09:55:39.518Z,-2.10
2024-01-11T09:58:08.636Z,-2.00
2024-01-11T10:00:38.375Z,-2.00
2024-01-11T10:03:06.917Z,-2.00
2024-01-11T10:05:36.819Z,-1.90
2024-01-11T10:08:05.405Z,-1.80
2024-01-11T10:10:33.871Z,-1.80
2024-01-11T10:13:02.079Z,-1.90
2024-01-11T10:15:30.238Z,-1.90
2024-01-11T10:18:00.272Z,-1.90
2024-01-11T10:20:31.196Z,-1.90
2024-01-11T10:23:00.538Z,-1.90
2024-01-11T10:25:29.881Z,-1.90
2024-01-11T10:27:58.930Z,-1.90
2024-01-11T10:30:27.450Z,-1.90
2024-01-11T10:32:56.464Z,-1.90
2024-01-11T10:35:26.420Z,-1.90
2024-01-11T10:37:55.930Z,-1.90
2024-01-11T10:40:26.867Z,-1.80
2024-01-11T10:42:55.933Z,-1.80
2024-01-11T10:45:24.173Z,-1.70
2024-01-11T10:47:59.897Z,-1.70
2024-01-11T10:50:36.372Z,-1.70
2024-01-11T10:53:19.190Z,-1.70
2024-01-11T10:55:48.210Z,-1.70
2024-01-11T10:58:22.036Z,-1.70
2024-01-11T11:00:51.954Z,-1.60
2024-01-11T11:03:21.999Z,-1.60
2024-01-11T11:05:53.493Z,-1.60
2024-01-11T11:08:22.735Z,-1.60
2024-01-11T11:10:51.300Z,-1.60
2024-01-11T11:13:20.853Z,-1.60
2024-01-11T11:15:49.921Z,-1.50
2024-01-11T11:18:19.386Z,-1.50
2024-01-11T11:20:49.447Z,-1.50
2024-01-11T11:23:20.110Z,-1.50
2024-01-11T11:25:49.513Z,-1.50
2024-01-11T11:28:19.403Z,-1.50
2024-01-11T11:30:51.151Z,-1.50
2024-01-11T11:33:21.291Z,-1.50
2024-01-11T11:35:50.361Z,-1.50
2024-01-11T11:38:24.067Z,-1.50
2024-01-11T11:40:55.003Z,-1.50
2024-01-11T11:43:24.199Z,-1.50
2024-01-11T11:45:54.137Z,-1.50
2024-01-11T11:48:52.105Z,-1.40
2024-01-11T11:51:22.640Z,-1.40
2024-01-11T11:53:54.499Z,-1.40
2024-01-11T11:56:25.025Z,-1.40
2024-01-11T11:58:55.900Z,-1.30
2024-01-11T12:01:24.308Z,-1.30
2024-01-11T12:03:52.912Z,-1.30
2024-01-11T12:06:24.759Z,-1.20
2024-01-11T12:08:57.604Z,-1.20
2024-01-11T12:11:27.737Z,-1.10
2024-01-11T12:13:58.374Z,-1.10
2024-01-11T12:16:26.915Z,-1.00
2024-01-11T12:18:55.812Z,-1.10
2024-01-11T12:21:24.017Z,-1.10
2024-01-11T12:23:52.213Z,-1.10
2024-01-11T12:26:23.950Z,-1.10
2024-01-11T12:28:54.567Z,-1.10
2024-01-11T12:31:24.135Z,-1.10
2024-01-11T12:33:53.011Z,-1.10
2024-01-11T12:36:22.012Z,-1.10
2024-01-11T12:38:52.888Z,-1.00
2024-01-11T12:41:25.309Z,-1.00
2024-01-11T12:43:54.416Z,-1.10
2024-01-11T12:46:22.656Z,-1.10
2024-01-11T12:48:52.295Z,-1.00
2024-01-11T12:51:22.264Z,-1.00
2024-01-11T12:53:51.693Z,-1.00
2024-01-11T12:56:22.600Z,-1.00
2024-01-11T12:58:53.890Z,-1.00
2024-01-11T13:01:22.576Z,-1.00
2024-01-11T13:03:51.210Z,-1.00
2024-01-11T13:06:22.237Z,-1.00
2024-01-11T13:08:50.848Z,-1.00
2024-01-11T13:11:22.221Z,-1.00
2024-01-11T13:13:50.740Z,-1.00
2024-01-11T13:16:20.619Z,-1.00
2024-01-11T13:18:49.056Z,-1.00
2024-01-11T13:21:17.306Z,-1.00
2024-01-11T13:23:45.531Z,-1.00
2024-01-11T13:26:13.723Z,-1.00
2024-01-11T13:28:45.039Z,-1.00
2024-01-11T13:31:13.247Z,-1.00
2024-01-11T13:33:43.006Z,-1.00
2024-01-11T13:36:20.330Z,-1.00
2024-01-11T13:38:48.449Z,-1.00
2024-01-11T13:41:17.536Z,-1.00
2024-01-11T13:43:45.741Z,-1.00
2024-01-11T13:46:17.716Z,-1.00
2024-01-11T13:48:49.469Z,-1.00
2024-01-11T13:51:17.727Z,-1.00
2024-01-11T13:53:46.650Z,-1.00
2024-01-11T13:56:14.954Z,-1.00
2024-01-11T13:58:44.800Z,-1.00
2024-01-11T14:01:13.548Z,-1.00
2024-01-11T14:03:41.740Z,-1.00
2024-01-11T14:06:11.439Z,-1.00
2024-01-11T14:08:39.651Z,-1.00
2024-01-11T14:11:07.804Z,-1.00
2024-01-11T14:13:36.012Z,-1.00
2024-01-11T14:16:04.548Z,-1.00
2024-01-11T14:18:32.937Z,-1.00
2024-01-11T14:21:01.578Z,-1.00
2024-01-11T14:23:31.172Z,-1.00
2024-01-11T14:25:59.582Z,-1.10
2024-01-11T14:28:27.803Z,-1.10
2024-01-11T14:30:56.131Z,-1.10
2024-01-11T14:33:24.829Z,-1.10
2024-01-11T14:35:53.008Z,-1.10
2024-01-11T14:38:21.248Z,-1.10
2024-01-11T14:40:53.304Z,-1.10
2024-01-11T14:43:22.834Z,-1.10
2024-01-11T14:48:44.484Z,-1.10
2024-01-11T14:51:13.784Z,-1.20
2024-01-11T14:53:43.363Z,-1.10
2024-01-11T14:56:15.427Z,-1.20
2024-01-11T14:58:44.397Z,-1.20
2024-01-11T15:01:14.082Z,-1.10
2024-01-11T15:03:42.511Z,-1.20
2024-01-11T15:06:10.850Z,-1.20
2024-01-11T15:08:39.805Z,-1.20
2024-01-11T15:11:08.025Z,-1.20
2024-01-11T15:13:37.604Z,-1.20
2024-01-11T15:16:07.184Z,-1.20
2024-01-11T15:18:35.388Z,-1.20
2024-01-11T15:21:03.979Z,-1.30
2024-01-11T15:23:32.130Z,-1.30
2024-01-11T15:26:00.265Z,-1.30
2024-01-11T15:28:28.413Z,-1.30
2024-01-11T15:30:58.034Z,-1.30
2024-01-11T15:33:26.352Z,-1.30
2024-01-11T15:35:55.204Z,-1.30
2024-01-11T15:38:23.388Z,-1.40
2024-01-11T15:40:51.504Z,-1.40
2024-01-11T15:43:19.562Z,-1.40
2024-01-11T15:45:47.695Z,-1.40
2024-01-11T15:48:17.283Z,-1.40
2024-01-11T15:50:47.058Z,-1.50
2024-01-11T15:53:33.820Z,-1.50
2024-01-11T15:56:02.032Z,-1.50
2024-01-11T15:58:30.149Z,-1.50
2024-01-11T16:00:58.199Z,-1.50
2024-01-11T16:03:27.705Z,-1.50
2024-01-11T16:05:56.009Z,-1.50
2024-01-11T16:08:25.484Z,-1.60
2024-01-11T16:10:53.542Z,-1.60
2024-01-11T16:13:21.759Z,-1.60
2024-01-11T16:15:50.237Z,-1.60
2024-01-11T16:18:18.992Z,-1.60
2024-01-11T16:20:51.042Z,-1.70
2024-01-11T16:23:20.782Z,-1.70
2024-01-11T16:25:48.934Z,-1.70
2024-01-11T16:28:17.329Z,-1.70
2024-01-11T16:30:46.398Z,-1.70
2024-01-11T16:33:14.590Z,-1.70
2024-01-11T16:35:52.468Z,-1.80
2024-01-11T16:38:28.085Z,-1.80
2024-01-11T16:40:56.210Z,-1.70
2024-01-11T16:43:24.489Z,-1.80
2024-01-11T16:45:52.724Z,-1.80
2024-01-11T16:48:21.015Z,-1.80
2024-01-11T16:50:49.483Z,-1.80
2024-01-11T16:53:17.707Z,-1.80
2024-01-11T16:55:47.322Z,-1.90
2024-01-11T16:58:15.504Z,-1.90
2024-01-11T17:00:46.264Z,-1.90
2024-01-11T17:03:14.717Z,-1.90
2024-01-11T17:05:43.248Z,-1.90
2024-01-11T17:08:11.784Z,-1.90
2024-01-11T17:10:40.584Z,-1.90
2024-01-11T17:13:10.122Z,-1.90
2024-01-11T17:15:38.306Z,-1.90
2024-01-11T17:18:06.913Z,-1.90
2024-01-11T17:20:35.768Z,-2.00
2024-01-11T17:23:03.936Z,-2.00
2024-01-11T17:25:32.163Z,-2.00
2024-01-11T17:28:00.258Z,-2.00
2024-01-11T17:30:29.887Z,-2.00
2024-01-11T17:32:58.057Z,-1.90
2024-01-11T17:35:26.355Z,-2.00
2024-01-11T17:37:54.673Z,-2.00
2024-01-11T17:40:22.842Z,-2.00
2024-01-11T17:42:50.902Z,-2.00
2024-01-11T17:45:19.220Z,-2.00
2024-01-11T17:47:48.899Z,-2.00
2024-01-11T17:50:17.153Z,-2.00
2024-01-11T17:52:47.091Z,-2.00
2024-01-11T17:55:16.182Z,-2.00
2024-01-11T17:57:44.291Z,-2.00
2024-01-11T18:00:15.865Z,-1.90
2024-01-11T18:02:44.185Z,-2.00
2024-01-11T18:05:14.508Z,-1.90
2024-01-11T18:07:42.661Z,-1.90
2024-01-11T18:10:11.297Z,-1.90
2024-01-11T18:12:41.677Z,-1.90
2024-01-11T18:15:11.318Z,-1.90
2024-01-11T18:17:42.023Z,-1.90
2024-01-11T18:20:11.296Z,-1.90
2024-01-11T18:22:43.786Z,-1.90
2024-01-11T18:25:12.159Z,-1.90
2024-01-11T18:27:42.063Z,-1.90
2024-01-11T18:30:13.278Z,-1.90
2024-01-11T18:32:41.979Z,-1.90
2024-01-11T18:35:10.886Z,-1.90
2024-01-11T18:37:41.008Z,-1.90
2024-01-11T18:40:10.074Z,-1.90
2024-01-11T18:42:38.142Z,-1.90
2024-01-11T18:45:07.350Z,-1.90
2024-01-11T18:47:35.552Z,-1.90
2024-01-11T18:50:05.623Z,-1.90
2024-01-11T18:52:33.930Z,-1.90
2024-01-11T18:55:12.567Z,-1.90
2024-01-11T18:57:45.433Z,-1.90
2024-01-11T19:00:13.981Z,-1.90
2024-01-11T19:02:42.291Z,-1.90
2024-01-11T19:05:14.046Z,-1.90
2024-01-11T19:07:42.361Z,-1.90
2024-01-11T19:10:14.133Z,-1.90
2024-01-11T19:12:42.249Z,-1.90
2024-01-11T19:15:11.227Z,-1.90
2024-01-11T19:17:45.789Z,-1.90
2024-01-11T19:20:14.759Z,-1.90
2024-01-11T19:22:48.968Z,-1.90
2024-01-11T19:25:18.786Z,-1.90
2024-01-11T19:27:46.864Z,-1.90
2024-01-11T19:30:15.780Z,-1.90
2024-01-11T19:32:44.495Z,-1.90
2024-01-11T19:35:13.308Z,-1.90
2024-01-11T19:37:46.427Z,-2.00
2024-01-11T19:40:19.095Z,-1.90
2024-01-11T19:42:48.190Z,-1.90
2024-01-11T19:45:17.034Z,-1.90
2024-01-11T19:47:47.681Z,-2.00
2024-01-11T19:50:16.022Z,-2.00
2024-01-11T19:52:44.218Z,-2.00
2024-01-11T19:55:12.598Z,-1.90
2024-01-11T19:57:44.917Z,-1.90
2024-01-11T20:00:15.061Z,-1.90
2024-01-11T20:02:43.297Z,-1.90
2024-01-11T20:05:14.717Z,-1.90
2024-01-11T20:07:44.980Z,-2.00
2024-01-11T20:10:14.037Z,-2.00
2024-01-11T20:12:46.795Z,-1.90
2024-01-11T20:15:19.362Z,-2.00
2024-01-11T20:17:48.116Z,-2.00
2024-01-11T20:20:16.497Z,-1.90
2024-01-11T20:22:44.597Z,-2.00
2024-01-11T20:25:14.426Z,-1.90
2024-01-11T20:27:48.361Z,-1.90
2024-01-11T20:30:16.896Z,-2.00
2024-01-11T20:32:45.390Z,-2.00
2024-01-11T20:35:15.572Z,-2.00
2024-01-11T20:37:43.757Z,-2.00
2024-01-11T20:40:15.131Z,-2.00
2024-01-11T20:42:44.738Z,-2.00
2024-01-11T20:45:15.568Z,-1.90
2024-01-11T20:47:56.434Z,-2.00
2024-01-11T20:50:24.795Z,-1.90
2024-01-11T20:52:52.977Z,-1.90
2024-01-11T20:55:23.580Z,-1.90
2024-01-11T20:57:55.560Z,-2.00
2024-01-11T21:00:31.233Z,-1.90
2024-01-11T21:03:05.923Z,-1.90
2024-01-11T21:05:34.157Z,-2.00
2024-01-11T21:08:04.484Z,-1.90
2024-01-11T21:10:32.842Z,-2.00
2024-01-11T21:13:02.361Z,-1.90
2024-01-11T21:15:30.514Z,-2.00
2024-01-11T21:17:58.710Z,-1.90
2024-01-11T21:20:27.713Z,-2.00
2024-01-11T21:22:55.851Z,-2.00
2024-01-11T21:25:24.869Z,-1.90
2024-01-11T21:27:56.295Z,-1.90
2024-01-11T21:30:25.832Z,-2.00
2024-01-11T21:32:54.573Z,-2.00
2024-01-11T21:35:22.771Z,-1.90
2024-01-11T21:37:51.196Z,-2.00
2024-01-11T21:40:20.410Z,-1.90
2024-01-11T21:42:48.566Z,-1.90
2024-01-11T21:45:17.027Z,-2.00
2024-01-11T21:47:48.373Z,-1.90
2024-01-11T21:50:17.775Z,-2.00
2024-01-11T21:52:47.245Z,-1.90
2024-01-11T21:55:15.526Z,-1.90
2024-01-11T21:57:43.602Z,-2.00
2024-01-11T22:00:13.382Z,-1.90
2024-01-11T22:02:41.527Z,-1.90
2024-01-11T22:05:13.391Z,-1.90
2024-01-11T22:07:41.559Z,-1.90
2024-01-11T22:10:10.906Z,-1.90
2024-01-11T22:12:39.020Z,-1.90
2024-01-11T22:15:09.238Z,-1.90
2024-01-11T22:17:38.020Z,-1.90
2024-01-11T22:20:07.181Z,-1.90
2024-01-11T22:22:37.293Z,-1.90
2024-01-11T22:25:06.144Z,-1.90
2024-01-11T22:27:34.610Z,-1.90
2024-01-11T22:30:03.914Z,-1.90
2024-01-11T22:32:32.129Z,-1.90
2024-01-11T22:35:00.289Z,-1.80
2024-01-11T22:37:31.128Z,-1.80
2024-01-11T22:40:00.589Z,-1.90
2024-01-11T22:42:30.088Z,-1.80
2024-01-11T22:44:58.329Z,-1.80
2024-01-11T22:47:27.646Z,-1.80
2024-01-11T22:49:55.946Z,-1.80
2024-01-11T22:52:24.032Z,-1.80
2024-01-11T22:54:52.085Z,-1.80
2024-01-11T22:57:21.494Z,-1.80
2024-01-11T22:59:50.826Z,-1.80
2024-01-11T23:02:19.118Z,-1.80
2024-01-11T23:04:47.270Z,-1.80
2024-01-11T23:07:15.296Z,-1.80
2024-01-11T23:09:43.510Z,-1.70
2024-01-11T23:12:11.655Z,-1.70
2024-01-11T23:14:41.142Z,-1.70
2024-01-11T23:17:09.222Z,-1.70
2024-01-11T23:19:37.258Z,-1.60
2024-01-11T23:22:05.475Z,-1.60
2024-01-11T23:24:33.658Z,-1.60
2024-01-11T23:27:01.963Z,-1.60
2024-01-11T23:29:30.344Z,-1.60
2024-01-11T23:32:01.925Z,-1.60
2024-01-11T23:34:29.965Z,-1.60
2024-01-11T23:36:58.016Z,-1.50
2024-01-11T23:39:26.146Z,-1.60
2024-01-11T23:41:55.591Z,-1.60
2024-01-11T23:44:23.767Z,-1.50
2024-01-11T23:46:53.105Z,-1.50
2024-01-11T23:49:23.152Z,-1.50
2024-01-11T23:51:51.408Z,-1.50
2024-01-11T23:54:19.469Z,-1.50
2024-01-11T23:56:47.916Z,-1.50
2024-01-11T23:59:19.578Z,-1.50
